createdAt,value
2023-02-06T00:00:42.422Z,25.70
2023-02-06T00:03:15.506Z,23.12
2023-02-06T00:06:00.043Z,22.80
2023-02-06T00:08:34.818Z,25.97
2023-02-06T00:11:10.347Z,24.57
2023-02-06T00:13:44.674Z,20.92
2023-02-06T00:16:24.057Z,21.68
2023-02-06T00:18:59.430Z,22.65
2023-02-06T00:21:33.007Z,26.05
2023-02-06T00:24:07.212Z,26.48
2023-02-06T00:26:41.078Z,25.72
2023-02-06T00:29:13.982Z,22.58
2023-02-06T00:31:47.002Z,27.05
2023-02-06T00:34:20.099Z,28.93
2023-02-06T00:36:54.177Z,31.52
2023-02-06T00:39:28.400Z,27.13
2023-02-06T00:42:01.246Z,22.42
2023-02-06T00:44:34.063Z,26.27
2023-02-06T00:47:07.060Z,28.12
2023-02-06T00:49:40.174Z,18.10
2023-02-06T00:52:13.049Z,18.98
2023-02-06T00:54:46.537Z,17.20
2023-02-06T00:57:19.499Z,16.65
2023-02-06T00:59:54.625Z,18.25
2023-02-06T01:02:27.644Z,17.35
2023-02-06T01:05:00.900Z,19.53
2023-02-06T01:07:37.004Z,19.85
2023-02-06T01:10:11.358Z,23.07
2023-02-06T01:12:44.893Z,25.17
2023-02-06T01:15:18.363Z,24.15
2023-02-06T01:17:51.657Z,25.65
2023-02-06T01:20:24.985Z,24.85
2023-02-06T01:22:57.980Z,24.92
2023-02-06T01:25:31.279Z,25.48
2023-02-06T01:28:05.230Z,24.02
2023-02-06T01:30:38.753Z,24.77
2023-02-06T01:33:12.620Z,22.45
2023-02-06T01:35:45.507Z,19.25
2023-02-06T01:38:18.845Z,21.30
2023-02-06T01:40:52.080Z,24.90
2023-02-06T01:43:25.145Z,21.00
2023-02-06T01:45:58.546Z,22.53
2023-02-06T01:48:38.472Z,24.77
2023-02-06T01:51:18.472Z,27.52
2023-02-06T01:53:55.584Z,28.65
2023-02-06T01:56:31.546Z,26.07
2023-02-06T01:59:05.749Z,26.68
2023-02-06T02:01:38.964Z,31.57
2023-02-06T02:04:16.453Z,34.00
2023-02-06T02:07:06.363Z,29.72
2023-02-06T02:09:39.433Z,28.70
2023-02-06T02:12:13.180Z,28.02
2023-02-06T02:14:49.629Z,31.33
2023-02-06T02:17:41.772Z,28.20
2023-02-06T02:20:53.000Z,31.07
2023-02-06T02:23:42.440Z,30.30
2023-02-06T02:26:32.585Z,27.35
2023-02-06T02:29:12.879Z,23.42
2023-02-06T02:32:02.558Z,25.30
2023-02-06T02:35:10.668Z,33.98
2023-02-06T02:38:03.399Z,29.30
2023-02-06T02:41:06.205Z,26.52
2023-02-06T02:44:01.013Z,30.57
2023-02-06T02:46:44.086Z,27.30
2023-02-06T02:49:23.380Z,25.97
2023-02-06T02:51:57.207Z,29.23
2023-02-06T02:54:30.189Z,29.12
2023-02-06T02:57:15.414Z,38.70
2023-02-06T02:59:49.733Z,31.55
2023-02-06T03:02:29.968Z,32.10
2023-02-06T03:05:09.592Z,29.52
2023-02-06T03:08:03.900Z,30.35
2023-02-06T03:10:44.121Z,29.92
2023-02-06T03:13:39.082Z,35.45
2023-02-06T03:16:49.054Z,34.38
2023-02-06T03:19:26.160Z,33.25
2023-02-06T03:21:59.654Z,41.50
2023-02-06T03:24:35.934Z,40.25
2023-02-06T03:27:12.873Z,40.70
2023-02-06T03:29:46.352Z,43.68
2023-02-06T03:32:37.911Z,50.30
2023-02-06T03:35:22.170Z,42.55
2023-02-06T03:37:55.438Z,40.00
2023-02-06T03:40:30.617Z,44.23
2023-02-06T03:43:05.779Z,41.68
2023-02-06T03:45:42.413Z,35.05
2023-02-06T03:48:22.663Z,40.12
2023-02-06T03:50:57.132Z,38.00
2023-02-06T03:53:31.174Z,45.08
2023-02-06T03:56:08.756Z,41.77
2023-02-06T03:58:42.280Z,45.23
2023-02-06T04:01:16.182Z,43.02
2023-02-06T04:03:49.690Z,41.85
2023-02-06T04:06:22.822Z,41.63
2023-02-06T04:08:55.829Z,44.15
2023-02-06T04:11:28.829Z,42.83
2023-02-06T04:14:02.566Z,43.90
2023-02-06T04:16:36.127Z,40.98
2023-02-06T04:19:08.953Z,43.55
2023-02-06T04:21:41.719Z,41.37
2023-02-06T04:24:15.093Z,41.25
2023-02-06T04:26:48.012Z,49.93
2023-02-06T04:29:21.050Z,53.45
2023-02-06T04:31:53.788Z,43.73
2023-02-06T04:34:26.630Z,43.58
2023-02-06T04:36:59.690Z,42.80
2023-02-06T04:39:32.758Z,45.47
2023-02-06T04:42:05.959Z,50.58
2023-02-06T04:44:39.165Z,46.80
2023-02-06T04:47:12.220Z,45.55
2023-02-06T04:49:44.950Z,42.98
2023-02-06T04:52:17.868Z,48.87
2023-02-06T04:54:51.111Z,48.00
2023-02-06T04:57:24.562Z,44.90
2023-02-06T04:59:57.455Z,43.68
2023-02-06T05:02:30.304Z,44.50
2023-02-06T05:05:03.279Z,46.18
2023-02-06T05:07:37.405Z,41.13
2023-02-06T05:10:11.708Z,52.38
2023-02-06T05:12:46.268Z,50.20
2023-02-06T05:15:19.585Z,47.67
2023-02-06T05:17:53.097Z,42.27
2023-02-06T05:20:26.178Z,45.65
2023-02-06T05:23:00.237Z,40.83
2023-02-06T05:25:33.561Z,36.60
2023-02-06T05:28:07.702Z,44.30
2023-02-06T05:30:41.016Z,42.93
2023-02-06T05:33:14.116Z,34.10
2023-02-06T05:35:47.279Z,42.45
2023-02-06T05:38:20.886Z,39.33
2023-02-06T05:40:54.126Z,46.30
2023-02-06T05:43:26.896Z,44.10
2023-02-06T05:46:00.128Z,41.25
2023-02-06T05:48:35.156Z,39.18
2023-02-06T05:51:08.205Z,43.63
2023-02-06T05:53:41.177Z,37.10
2023-02-06T05:56:14.117Z,40.88
2023-02-06T05:58:47.681Z,43.35
2023-02-06T06:01:20.498Z,46.85
2023-02-06T06:03:53.407Z,44.15
2023-02-06T06:06:26.196Z,42.40
2023-02-06T06:09:01.079Z,41.02
2023-02-06T06:11:34.265Z,36.25
2023-02-06T06:14:07.416Z,41.17
2023-02-06T06:16:42.162Z,38.83
2023-02-06T06:21:46.988Z,40.28
2023-02-06T06:24:20.741Z,35.00
2023-02-06T06:26:53.533Z,40.50
2023-02-06T06:29:27.485Z,42.60
2023-02-06T06:34:33.176Z,43.33
2023-02-06T06:37:06.769Z,34.80
2023-02-06T06:39:39.507Z,32.13
2023-02-06T06:42:12.308Z,37.42
2023-02-06T06:44:45.287Z,37.63
2023-02-06T06:47:18.368Z,35.35
2023-02-06T06:49:51.303Z,35.43
2023-02-06T06:52:25.747Z,36.53
2023-02-06T06:54:59.248Z,33.53
2023-02-06T06:57:35.481Z,44.18
2023-02-06T07:00:10.502Z,35.95
2023-02-06T07:02:43.624Z,40.35
2023-02-06T07:05:16.545Z,34.70
2023-02-06T07:07:50.221Z,37.53
2023-02-06T07:10:23.284Z,34.80
2023-02-06T07:12:56.962Z,37.80
2023-02-06T07:15:30.139Z,30.95
2023-02-06T07:18:03.722Z,40.95
2023-02-06T07:20:38.322Z,34.92
2023-02-06T07:23:11.792Z,32.03
2023-02-06T07:25:44.943Z,33.67
2023-02-06T07:28:18.074Z,32.80
2023-02-06T07:30:51.004Z,35.80
2023-02-06T07:33:24.046Z,36.48
2023-02-06T07:35:57.114Z,29.07
2023-02-06T07:38:30.374Z,29.67
2023-02-06T07:41:04.333Z,33.35
2023-02-06T07:43:39.711Z,31.33
2023-02-06T07:46:12.780Z,31.55
2023-02-06T07:48:45.760Z,30.95
2023-02-06T07:51:18.628Z,21.37
2023-02-06T07:53:51.441Z,19.73
2023-02-06T07:56:25.516Z,28.17
2023-02-06T07:58:58.394Z,20.15
2023-02-06T08:01:31.559Z,18.32
2023-02-06T08:04:04.790Z,24.47
2023-02-06T08:06:37.704Z,32.53
2023-02-06T08:09:19.457Z,27.75
2023-02-06T08:11:55.583Z,25.25
2023-02-06T08:14:28.993Z,27.58
2023-02-06T08:17:02.021Z,26.48
2023-02-06T08:19:34.998Z,22.07
2023-02-06T08:22:08.086Z,22.80
2023-02-06T08:24:41.094Z,25.07
2023-02-06T08:27:14.079Z,29.50
2023-02-06T08:29:47.704Z,31.90
2023-02-06T08:32:20.671Z,29.30
2023-02-06T08:34:53.944Z,32.08
2023-02-06T08:37:26.684Z,32.95
2023-02-06T08:39:59.679Z,30.17
2023-02-06T08:42:33.413Z,29.10
2023-02-06T08:45:06.627Z,32.85
2023-02-06T08:47:40.752Z,22.48
2023-02-06T08:50:13.932Z,29.72
2023-02-06T08:52:46.796Z,30.70
2023-02-06T08:55:20.268Z,35.98
2023-02-06T08:57:55.120Z,30.77
2023-02-06T09:00:28.220Z,31.03
2023-02-06T09:03:01.475Z,32.65
2023-02-06T09:05:34.976Z,28.45
2023-02-06T09:08:08.149Z,27.55
2023-02-06T09:10:41.497Z,28.27
2023-02-06T09:15:54.939Z,30.75
2023-02-06T09:18:27.503Z,32.78
2023-02-06T09:21:11.692Z,33.33
2023-02-06T09:23:48.308Z,29.45
2023-02-06T09:26:25.171Z,24.45
2023-02-06T09:29:00.683Z,23.45
2023-02-06T09:31:33.824Z,27.10
2023-02-06T09:34:08.673Z,21.25
2023-02-06T09:36:41.477Z,25.57
2023-02-06T09:39:14.332Z,27.17
2023-02-06T09:41:52.448Z,24.85
2023-02-06T09:44:44.221Z,25.37
2023-02-06T09:47:35.359Z,23.18
2023-02-06T09:50:46.030Z,34.30
2023-02-06T09:53:30.464Z,33.05
2023-02-06T09:56:36.064Z,39.08
2023-02-06T10:02:23.672Z,37.05
2023-02-06T10:05:23.269Z,36.08
2023-02-06T10:08:20.771Z,33.08
2023-02-06T10:11:02.890Z,33.92
2023-02-06T10:13:43.883Z,34.78
2023-02-06T10:16:30.497Z,34.10
2023-02-06T10:19:25.266Z,31.73
2023-02-06T10:22:10.193Z,32.30
2023-02-06T10:24:49.473Z,37.08
2023-02-06T10:27:22.324Z,30.32
2023-02-06T10:29:55.424Z,33.37
2023-02-06T10:32:35.785Z,30.68
2023-02-06T10:35:25.353Z,31.15
2023-02-06T10:38:23.793Z,28.17
2023-02-06T10:41:06.984Z,38.80
2023-02-06T10:43:53.949Z,40.63
2023-02-06T10:46:46.429Z,37.83
2023-02-06T10:49:28.244Z,34.92
2023-02-06T10:52:05.352Z,35.17
2023-02-06T10:54:46.630Z,31.23
2023-02-06T10:57:24.142Z,31.23
2023-02-06T11:00:02.599Z,38.95
2023-02-06T11:03:07.261Z,38.10
2023-02-06T11:05:35.287Z,26.25
2023-02-06T11:08:22.101Z,28.47
2023-02-06T11:10:56.297Z,34.58
2023-02-06T11:16:10.617Z,32.83
2023-02-06T11:18:47.672Z,26.35
2023-02-06T11:21:42.132Z,34.40
2023-02-06T11:24:17.396Z,28.40
2023-02-06T11:26:57.830Z,27.17
2023-02-06T11:29:39.560Z,28.55
2023-02-06T11:32:28.636Z,31.52
2023-02-06T11:35:06.688Z,32.30
2023-02-06T11:37:42.898Z,36.98
2023-02-06T11:40:26.274Z,38.28
2023-02-06T11:43:28.792Z,37.48
2023-02-06T11:46:17.917Z,41.58
2023-02-06T11:49:04.601Z,40.33
2023-02-06T11:51:51.920Z,33.48
2023-02-06T11:54:29.971Z,35.98
2023-02-06T11:57:20.207Z,35.75
2023-02-06T12:00:06.966Z,35.95
2023-02-06T12:02:42.920Z,39.58
2023-02-06T12:05:19.689Z,42.83
2023-02-06T12:07:57.878Z,41.63
2023-02-06T12:10:35.521Z,43.58
2023-02-06T12:13:18.814Z,36.08
2023-02-06T12:15:55.039Z,45.73
2023-02-06T12:18:35.358Z,46.95
2023-02-06T12:21:27.961Z,43.58
2023-02-06T12:24:08.584Z,41.88
2023-02-06T12:26:41.947Z,45.65
2023-02-06T12:29:27.851Z,42.70
2023-02-06T12:32:18.761Z,44.58
2023-02-06T12:35:17.190Z,43.50
2023-02-06T12:37:55.560Z,44.00
2023-02-06T12:40:51.304Z,44.50
2023-02-06T12:43:24.556Z,64.03
2023-02-06T12:46:11.978Z,41.42
2023-02-06T12:48:56.028Z,30.10
2023-02-06T12:51:36.909Z,38.45
2023-02-06T12:54:20.033Z,45.15
2023-02-06T12:57:14.971Z,38.70
2023-02-06T13:00:38.433Z,20.77
2023-02-06T13:03:32.727Z,20.90
2023-02-06T13:06:24.219Z,21.95
2023-02-06T13:09:06.221Z,23.02
2023-02-06T13:11:42.824Z,24.00
2023-02-06T13:14:28.424Z,31.12
2023-02-06T13:17:11.851Z,24.20
2023-02-06T13:19:49.515Z,28.67
2023-02-06T13:22:27.101Z,24.85
2023-02-06T13:24:59.994Z,22.55
2023-02-06T13:27:41.055Z,19.10
2023-02-06T13:30:37.095Z,18.57
2023-02-06T13:33:24.499Z,18.52
2023-02-06T13:36:10.696Z,27.75
2023-02-06T13:38:43.970Z,29.15
2023-02-06T13:41:20.593Z,26.00
2023-02-06T13:44:05.714Z,21.12
2023-02-06T13:46:58.239Z,28.87
2023-02-06T13:50:01.556Z,28.70
2023-02-06T13:52:54.071Z,26.90
2023-02-06T13:55:40.956Z,23.47
2023-02-06T13:58:33.477Z,24.67
2023-02-06T14:01:13.508Z,21.75
2023-02-06T14:03:50.333Z,47.30
2023-02-06T14:06:39.987Z,39.10
2023-02-06T14:09:44.503Z,42.30
2023-02-06T14:12:53.984Z,43.73
2023-02-06T14:15:58.506Z,42.23
2023-02-06T14:18:54.086Z,41.68
2023-02-06T14:21:52.419Z,42.25
2023-02-06T14:24:30.257Z,46.77
2023-02-06T14:27:31.326Z,45.65
2023-02-06T14:30:27.148Z,44.40
2023-02-06T14:33:10.515Z,46.10
2023-02-06T14:36:02.427Z,38.93
2023-02-06T14:39:22.242Z,49.85
2023-02-06T14:41:55.737Z,46.90
2023-02-06T14:44:31.828Z,56.63
2023-02-06T14:47:04.862Z,44.48
2023-02-06T14:49:39.567Z,45.30
2023-02-06T14:52:20.632Z,47.17
2023-02-06T14:54:53.826Z,48.17
2023-02-06T14:57:31.185Z,49.08
2023-02-06T15:00:20.140Z,53.45
2023-02-06T15:03:10.440Z,58.15
2023-02-06T15:05:43.204Z,52.83
2023-02-06T15:08:21.428Z,51.88
2023-02-06T15:11:03.979Z,47.40
2023-02-06T15:13:39.444Z,45.88
2023-02-06T15:16:12.265Z,47.98
2023-02-06T15:18:45.737Z,43.20
2023-02-06T15:21:21.339Z,38.00
2023-02-06T15:24:13.767Z,46.42
2023-02-06T15:27:12.397Z,46.28
2023-02-06T15:29:51.010Z,46.58
2023-02-06T15:32:38.025Z,48.35
2023-02-06T15:35:35.918Z,46.00
2023-02-06T15:38:14.739Z,59.05
2023-02-06T15:40:51.525Z,58.42
2023-02-06T15:43:26.683Z,41.77
2023-02-06T15:46:02.934Z,33.78
2023-02-06T15:48:52.334Z,29.37
2023-02-06T15:51:32.266Z,36.03
2023-02-06T15:54:21.254Z,32.00
2023-02-06T15:57:19.582Z,31.33
2023-02-06T15:59:53.604Z,30.35
2023-02-06T16:02:36.378Z,31.60
2023-02-06T16:05:10.341Z,31.77
2023-02-06T16:07:45.948Z,31.37
2023-02-06T16:10:27.547Z,28.90
2023-02-06T16:13:03.567Z,30.80
2023-02-06T16:15:40.935Z,35.52
2023-02-06T16:18:33.109Z,37.23
2023-02-06T16:21:25.623Z,36.33
2023-02-06T16:24:07.277Z,38.92
2023-02-06T16:26:52.549Z,47.73
2023-02-06T16:29:29.771Z,43.60
2023-02-06T16:32:06.649Z,50.05
2023-02-06T16:34:42.658Z,46.48
2023-02-06T16:37:19.363Z,43.92
2023-02-06T16:39:52.820Z,42.43
2023-02-06T16:42:34.708Z,43.33
2023-02-06T16:45:27.162Z,46.23
2023-02-06T16:47:59.774Z,43.42
2023-02-06T16:50:35.914Z,48.48
2023-02-06T16:53:18.742Z,45.75
2023-02-06T16:55:52.339Z,42.80
2023-02-06T16:58:28.028Z,42.43
2023-02-06T17:01:01.706Z,59.58
2023-02-06T17:03:37.989Z,59.60
2023-02-06T17:06:15.414Z,69.15
2023-02-06T17:08:48.302Z,105.47
2023-02-06T17:11:22.159Z,59.50
2023-02-06T17:13:54.908Z,55.90
2023-02-06T17:16:29.600Z,44.33
2023-02-06T17:19:02.491Z,50.23
2023-02-06T17:21:35.548Z,43.17
2023-02-06T17:24:08.808Z,42.40
2023-02-06T17:26:42.373Z,37.45
2023-02-06T17:29:16.419Z,38.50
2023-02-06T17:31:49.365Z,40.70
2023-02-06T17:34:23.629Z,40.20
2023-02-06T17:36:57.052Z,37.35
2023-02-06T17:39:30.386Z,45.58
2023-02-06T17:42:03.422Z,41.58
2023-02-06T17:44:36.788Z,47.00
2023-02-06T17:47:10.055Z,40.83
2023-02-06T17:49:42.874Z,40.92
2023-02-06T17:52:16.322Z,41.83
2023-02-06T17:54:49.089Z,43.85
2023-02-06T17:57:22.397Z,41.18
2023-02-06T17:59:55.834Z,37.50
2023-02-06T18:02:28.729Z,30.52
2023-02-06T18:05:01.772Z,35.73
2023-02-06T18:07:35.592Z,39.88
2023-02-06T18:10:10.113Z,41.35
2023-02-06T18:12:43.573Z,45.78
2023-02-06T18:15:17.908Z,41.48
2023-02-06T18:17:51.842Z,42.15
2023-02-06T18:20:25.163Z,39.90
2023-02-06T18:22:58.667Z,39.85
2023-02-06T18:25:31.484Z,47.17
2023-02-06T18:28:04.892Z,34.58
2023-02-06T18:30:38.274Z,41.33
2023-02-06T18:33:13.058Z,42.73
2023-02-06T18:35:46.946Z,43.52
2023-02-06T18:38:20.106Z,38.83
2023-02-06T18:40:53.674Z,44.83
2023-02-06T18:43:27.835Z,46.98
2023-02-06T18:46:02.267Z,45.40
2023-02-06T18:48:36.607Z,43.90
2023-02-06T18:53:41.897Z,43.95
2023-02-06T18:56:14.828Z,45.83
2023-02-06T18:58:48.012Z,42.88
2023-02-06T19:01:24.384Z,44.63
2023-02-06T19:03:58.644Z,40.35
2023-02-06T19:06:35.365Z,41.83
2023-02-06T19:09:09.462Z,37.58
2023-02-06T19:11:43.893Z,54.98
2023-02-06T19:14:20.699Z,51.02
2023-02-06T19:16:55.248Z,52.30
2023-02-06T19:19:28.187Z,47.20
2023-02-06T19:22:01.468Z,48.90
2023-02-06T19:27:07.285Z,50.83
2023-02-06T19:29:41.042Z,49.03
2023-02-06T19:32:14.687Z,48.52
2023-02-06T19:34:47.895Z,47.73
2023-02-06T19:37:22.444Z,59.15
2023-02-06T19:39:57.366Z,52.25
2023-02-06T19:42:30.355Z,50.60
2023-02-06T19:45:05.388Z,77.37
2023-02-06T19:47:39.821Z,56.50
2023-02-06T19:52:48.310Z,58.17
2023-02-06T19:55:22.576Z,58.65
2023-02-06T19:57:56.924Z,55.70
2023-02-06T20:00:31.315Z,58.23
2023-02-06T20:03:05.761Z,54.18
2023-02-06T20:05:40.588Z,50.90
2023-02-06T20:08:16.007Z,57.75
2023-02-06T20:10:50.557Z,50.85
2023-02-06T20:13:25.010Z,49.53
2023-02-06T20:16:00.788Z,47.43
2023-02-06T20:18:37.287Z,51.95
2023-02-06T20:21:28.057Z,52.40
2023-02-06T20:24:06.944Z,49.85
2023-02-06T20:26:43.376Z,42.27
2023-02-06T20:29:27.707Z,43.08
2023-02-06T20:32:02.251Z,43.13
2023-02-06T20:34:37.263Z,47.40
2023-02-06T20:37:11.092Z,40.52
2023-02-06T20:42:19.601Z,39.20
2023-02-06T20:44:53.723Z,41.45
2023-02-06T20:47:27.616Z,47.88
2023-02-06T20:52:36.948Z,53.80
2023-02-06T20:55:11.052Z,47.25
2023-02-06T20:57:45.262Z,52.80
2023-02-06T21:00:20.805Z,51.13
2023-02-06T21:02:54.909Z,52.23
2023-02-06T21:08:01.946Z,49.90
2023-02-06T21:10:36.763Z,46.53
2023-02-06T21:13:10.715Z,42.98
2023-02-06T21:15:46.802Z,72.67
2023-02-06T21:18:22.509Z,71.02
2023-02-06T21:20:58.291Z,54.80
2023-02-06T21:23:32.051Z,61.00
2023-02-06T21:26:07.168Z,53.00
2023-02-06T21:28:42.106Z,46.48
2023-02-06T21:31:27.686Z,46.55
2023-02-06T21:34:06.202Z,48.60
2023-02-06T21:36:42.201Z,47.75
2023-02-06T21:39:22.626Z,55.75
2023-02-06T21:41:57.421Z,63.23
2023-02-06T21:44:32.001Z,60.92
2023-02-06T21:47:06.284Z,73.02
2023-02-06T21:49:40.426Z,55.63
2023-02-06T21:52:14.488Z,55.17
2023-02-06T21:57:22.000Z,47.10
2023-02-06T21:59:57.286Z,52.78
2023-02-06T22:02:31.696Z,51.30
2023-02-06T22:07:40.891Z,54.55
2023-02-06T22:10:15.484Z,49.73
2023-02-06T22:12:53.176Z,50.48
2023-02-06T22:15:27.207Z,46.28
2023-02-06T22:18:02.016Z,48.73
2023-02-06T22:20:36.309Z,50.20
2023-02-06T22:25:48.874Z,43.15
2023-02-06T22:28:23.046Z,47.03
2023-02-06T22:30:56.850Z,46.73
2023-02-06T22:33:30.709Z,47.50
2023-02-06T22:36:15.206Z,44.38
2023-02-06T22:38:51.691Z,42.53
2023-02-06T22:41:25.549Z,46.37
2023-02-06T22:43:59.777Z,45.65
2023-02-06T22:46:38.925Z,47.75
2023-02-06T22:49:13.822Z,47.48
2023-02-06T22:51:48.486Z,48.25
2023-02-06T22:54:22.518Z,48.30
2023-02-06T22:56:57.568Z,46.83
2023-02-06T22:59:31.527Z,48.13
2023-02-06T23:02:05.493Z,46.45
2023-02-06T23:04:40.983Z,46.30
2023-02-06T23:07:15.446Z,47.98
2023-02-06T23:09:49.754Z,45.55
2023-02-06T23:12:23.601Z,49.15
2023-02-06T23:14:58.349Z,46.45
2023-02-06T23:17:32.139Z,44.20
2023-02-06T23:22:41.014Z,46.65
2023-02-06T23:25:15.033Z,44.42
2023-02-06T23:27:49.737Z,46.02
2023-02-06T23:30:24.150Z,42.93
2023-02-06T23:32:58.666Z,43.35
2023-02-06T23:35:34.358Z,48.05
2023-02-06T23:38:09.147Z,39.33
2023-02-06T23:40:43.176Z,42.30
2023-02-06T23:43:17.293Z,37.93
2023-02-06T23:45:51.399Z,40.08
2023-02-06T23:48:25.431Z,39.98
2023-02-06T23:50:59.910Z,42.08
2023-02-06T23:53:34.416Z,40.33
2023-02-06T23:56:29.309Z,45.23
2023-02-06T23:59:04.997Z,47.70
